Time;durP1;ratioP1;P1;durP2;ratioP2;P2;SDS_P1;SDS_P2;PMS_P1;PMS_P2;Temp;Humidity;BMP_temperature;BMP_pressure;BME280_temperature;BME280_humidity;BME280_pressure;Samples;Min_cycle;Max_cycle;Signal;HPM_P1;HPM_P2
2022/08/03 00:00:39;;;;;;;9.50;2.67;;;19.00;99.90;;;;;;5066726;28;20071;-69
2022/08/03 00:03:05;;;;;;;8.15;2.78;;;19.00;99.90;;;;;;5049720;28;20464;-69
2022/08/03 00:05:32;;;;;;;11.85;3.28;;;19.00;99.90;;;;;;5066056;28;20048;-69
2022/08/03 00:08:01;;;;;;;9.40;2.58;;;19.00;99.90;;;;;;5066567;28;20048;-69
2022/08/03 00:10:27;;;;;;;10.55;2.95;;;19.00;99.90;;;;;;5066908;28;20114;-68
2022/08/03 00:12:53;;;;;;;9.23;2.55;;;19.00;99.90;;;;;;5065863;28;20044;-69
2022/08/03 00:15:18;;;;;;;8.80;2.28;;;19.00;99.90;;;;;;5067232;28;20667;-69
2022/08/03 00:17:45;;;;;;;11.25;2.45;;;19.00;99.90;;;;;;5065581;28;20595;-69
2022/08/03 00:20:10;;;;;;;11.15;2.58;;;19.00;99.90;;;;;;5064850;28;20048;-69
2022/08/03 00:22:37;;;;;;;6.65;2.70;;;19.00;99.90;;;;;;5065671;28;20546;-69
2022/08/03 00:25:03;;;;;;;14.93;2.45;;;19.00;99.90;;;;;;5066725;28;20048;-69
2022/08/03 00:27:28;;;;;;;9.85;2.75;;;18.90;99.90;;;;;;5067039;28;20638;-69
2022/08/03 00:29:54;;;;;;;8.93;2.85;;;18.90;99.90;;;;;;5048401;28;20070;-69
2022/08/03 00:32:20;;;;;;;11.45;2.42;;;18.90;99.90;;;;;;5067136;28;20040;-70
2022/08/03 00:34:46;;;;;;;10.48;2.33;;;18.90;99.90;;;;;;5064236;28;20040;-69
2022/08/03 00:37:11;;;;;;;7.13;2.50;;;18.90;99.90;;;;;;5063763;28;20044;-68
2022/08/03 00:39:37;;;;;;;11.88;2.47;;;18.90;99.90;;;;;;5049208;28;20032;-69
2022/08/03 00:42:04;;;;;;;9.05;2.50;;;18.90;99.90;;;;;;5065309;28;20056;-70
2022/08/03 00:44:30;;;;;;;9.02;2.40;;;18.90;99.90;;;;;;5066035;28;20045;-69
2022/08/03 00:46:56;;;;;;;11.25;2.53;;;18.90;99.90;;;;;;5065602;28;20151;-69
2022/08/03 00:49:22;;;;;;;12.52;2.60;;;18.90;99.90;;;;;;5066080;28;20501;-69
2022/08/03 00:51:48;;;;;;;8.00;2.70;;;18.80;99.90;;;;;;5062043;28;20090;-69
2022/08/03 00:54:14;;;;;;;10.55;3.20;;;18.80;99.90;;;;;;5065724;28;20040;-69
2022/08/03 00:56:41;;;;;;;12.00;2.75;;;18.80;99.90;;;;;;5065843;28;20041;-69
2022/08/03 00:59:09;;;;;;;10.10;2.75;;;18.80;99.90;;;;;;5049092;28;20106;-69
2022/08/03 01:01:35;;;;;;;11.98;3.22;;;18.70;99.90;;;;;;5066199;28;20041;-68
2022/08/03 01:04:01;;;;;;;13.60;3.17;;;18.70;99.90;;;;;;5064839;28;20400;-69
2022/08/03 01:07:05;;;;;;;12.35;2.78;;;18.70;99.90;;;;;;5062381;28;20381;-69
2022/08/03 01:09:37;;;;;;;11.27;2.70;;;18.60;99.90;;;;;;5064635;28;20049;-69
2022/08/03 01:12:19;;;;;;;11.93;3.42;;;18.70;99.90;;;;;;5063935;28;20048;-68
2022/08/03 01:15:03;;;;;;;15.48;3.03;;;18.60;99.90;;;;;;5065386;28;20044;-69
2022/08/03 01:17:54;;;;;;;10.10;2.83;;;18.60;99.90;;;;;;5063360;28;20123;-69
2022/08/03 01:20:22;;;;;;;7.85;2.60;;;18.60;99.90;;;;;;5063407;28;20097;-69
2022/08/03 01:23:10;;;;;;;11.40;2.35;;;18.60;99.90;;;;;;5066111;28;20131;-69
2022/08/03 01:25:48;;;;;;;9.43;2.47;;;18.60;99.90;;;;;;5048001;28;20071;-69
2022/08/03 01:28:35;;;;;;;9.82;2.30;;;18.60;99.90;;;;;;5065823;28;20083;-69
2022/08/03 01:31:07;;;;;;;12.57;2.42;;;18.60;99.90;;;;;;5048333;28;20072;-69
2022/08/03 01:33:40;;;;;;;11.80;3.20;;;18.50;99.90;;;;;;5064818;28;20033;-69
2022/08/03 01:36:21;;;;;;;9.45;2.17;;;18.50;99.90;;;;;;5061324;28;20059;-69
2022/08/03 01:38:52;;;;;;;8.25;2.25;;;18.50;99.90;;;;;;5047228;28;20036;-69
2022/08/03 01:41:23;;;;;;;11.48;2.45;;;18.50;99.90;;;;;;5066066;28;20040;-69
2022/08/03 01:43:52;;;;;;;8.43;2.05;;;18.50;99.90;;;;;;5065460;28;20139;-69
2022/08/03 01:46:19;;;;;;;7.22;2.17;;;18.50;99.90;;;;;;5065487;28;20458;-69
2022/08/03 01:48:47;;;;;;;12.77;2.50;;;18.40;99.90;;;;;;5064578;28;20472;-69
2022/08/03 01:51:17;;;;;;;8.75;2.17;;;18.40;99.90;;;;;;5048499;28;20051;-68
2022/08/03 01:53:44;;;;;;;6.78;2.08;;;18.40;99.90;;;;;;5065244;28;20127;-69
2022/08/03 01:56:11;;;;;;;9.30;2.10;;;18.40;99.90;;;;;;5069485;28;20059;-68
2022/08/03 01:58:38;;;;;;;11.55;2.05;;;18.40;99.90;;;;;;5052526;28;20044;-69
2022/08/03 02:01:05;;;;;;;6.72;1.90;;;18.40;99.90;;;;;;5067398;28;20044;-69
2022/08/03 02:03:35;;;;;;;6.55;1.77;;;18.30;99.90;;;;;;5065500;28;20480;-69
2022/08/03 02:06:01;;;;;;;9.02;2.40;;;18.30;99.90;;;;;;5068201;28;20072;-69
2022/08/03 02:08:29;;;;;;;9.60;1.98;;;18.30;99.90;;;;;;5051256;28;20126;-69
2022/08/03 02:10:56;;;;;;;9.07;2.20;;;18.30;99.90;;;;;;5067450;28;20052;-69
2022/08/03 02:13:24;;;;;;;8.23;1.90;;;18.30;99.90;;;;;;5065427;28;20055;-68
2022/08/03 02:15:51;;;;;;;7.70;2.15;;;18.30;99.90;;;;;;5066903;28;20119;-70
2022/08/03 02:18:20;;;;;;;6.88;2.10;;;18.30;99.90;;;;;;5067969;28;20127;-69
2022/08/03 02:20:46;;;;;;;11.90;2.53;;;18.30;99.90;;;;;;5065692;28;20037;-69
2022/08/03 02:23:15;;;;;;;8.73;2.22;;;18.30;99.90;;;;;;5068064;28;20037;-69
2022/08/03 02:25:45;;;;;;;7.22;2.53;;;18.30;99.90;;;;;;5050911;28;20032;-69
2022/08/03 02:28:16;;;;;;;10.40;2.60;;;18.30;99.90;;;;;;5068579;28;20044;-69
2022/08/03 02:30:44;;;;;;;10.02;2.13;;;18.40;99.90;;;;;;5069206;28;20489;-69
2022/08/03 02:33:18;;;;;;;9.25;2.13;;;18.30;99.90;;;;;;5066608;28;20525;-69
2022/08/03 02:35:46;;;;;;;8.70;2.20;;;18.30;99.90;;;;;;5064910;28;20119;-69
2022/08/03 02:38:17;;;;;;;7.43;1.88;;;18.30;99.90;;;;;;5068364;28;20497;-68
2022/08/03 02:40:43;;;;;;;;;;;18.30;99.90;;;;;;5067618;28;20409;-69
2022/08/03 02:43:12;;;;;;;9.52;2.20;;;18.30;99.90;;;;;;5067781;28;19931;-68
2022/08/03 02:45:44;;;;;;;9.85;2.15;;;18.20;99.90;;;;;;5068192;28;20047;-70
2022/08/03 02:48:11;;;;;;;9.45;2.33;;;18.20;99.90;;;;;;5067095;28;20464;-71
2022/08/03 02:50:38;;;;;;;15.07;2.20;;;18.20;99.90;;;;;;5065456;28;20414;-71
2022/08/03 02:53:05;;;;;;;7.68;1.90;;;18.20;99.90;;;;;;5050516;28;20170;-71
2022/08/03 02:55:34;;;;;;;12.55;2.20;;;18.20;99.90;;;;;;5066583;28;20040;-71
2022/08/03 02:58:02;;;;;;;13.50;2.33;;;18.20;99.90;;;;;;5049158;28;20060;-70
2022/08/03 03:00:30;;;;;;;9.48;2.28;;;18.20;99.90;;;;;;5066915;28;20080;-71
2022/08/03 03:02:58;;;;;;;11.40;2.15;;;18.10;99.90;;;;;;5048690;28;20119;-71
2022/08/03 03:05:24;;;;;;;10.45;2.50;;;18.10;99.90;;;;;;5066815;28;20041;-71
2022/08/03 03:07:51;;;;;;;10.35;2.25;;;18.10;99.90;;;;;;5067823;28;20179;-71
2022/08/03 03:10:17;;;;;;;11.60;2.45;;;18.20;99.90;;;;;;5066210;28;20053;-70
2022/08/03 03:12:44;;;;;;;11.75;2.45;;;18.20;99.90;;;;;;5065574;28;20087;-70
2022/08/03 03:15:10;;;;;;;9.02;2.40;;;18.20;99.90;;;;;;5066417;28;20286;-71
2022/08/03 03:17:36;;;;;;;8.23;1.73;;;18.20;99.90;;;;;;5063850;28;20044;-71
2022/08/03 03:20:03;;;;;;;10.57;2.58;;;18.10;99.90;;;;;;5046502;28;20329;-72
2022/08/03 03:22:32;;;;;;;9.90;2.30;;;18.10;99.90;;;;;;5065544;28;20040;-71
2022/08/03 03:24:58;;;;;;;8.85;2.13;;;18.10;99.90;;;;;;5064607;28;20516;-71
2022/08/03 03:27:24;;;;;;;12.52;2.20;;;18.10;99.90;;;;;;5068724;28;20307;-69
2022/08/03 03:29:50;;;;;;;11.32;2.38;;;18.20;99.90;;;;;;5064642;28;20053;-68
2022/08/03 03:32:16;;;;;;;11.15;2.35;;;18.10;99.90;;;;;;5067309;28;20052;-69
2022/08/03 03:34:45;;;;;;;11.93;2.83;;;18.10;99.90;;;;;;5065741;28;20040;-69
2022/08/03 03:37:10;;;;;;;12.25;2.67;;;18.10;99.90;;;;;;5066677;28;20056;-69
2022/08/03 03:39:36;;;;;;;12.90;2.40;;;18.00;99.90;;;;;;5067291;28;20041;-69
2022/08/03 03:42:03;;;;;;;8.88;2.17;;;18.00;99.90;;;;;;5062324;28;20797;-68
2022/08/03 03:44:30;;;;;;;6.78;2.50;;;18.00;99.90;;;;;;5055597;28;20398;-68
2022/08/03 03:46:59;;;;;;;10.32;2.47;;;18.00;99.90;;;;;;5063000;28;20492;-69
2022/08/03 03:49:25;;;;;;;11.45;2.75;;;18.00;99.90;;;;;;5063373;28;20036;-69
2022/08/03 03:51:53;;;;;;;13.27;2.55;;;18.00;99.90;;;;;;5065145;28;20048;-68
2022/08/03 03:54:21;;;;;;;8.57;2.70;;;18.00;99.90;;;;;;5065443;28;20127;-69
2022/08/03 03:56:47;;;;;;;11.60;2.80;;;18.00;99.90;;;;;;5063019;28;20033;-68
2022/08/03 03:59:13;;;;;;;11.93;2.47;;;18.00;99.90;;;;;;5065423;28;20504;-68
2022/08/03 04:01:39;;;;;;;10.18;2.78;;;18.00;99.90;;;;;;5063536;28;20115;-68
2022/08/03 04:12:27;;;;;;;11.25;2.58;;;18.00;99.90;;;;;;5063024;28;20058;-69
2022/08/03 04:14:56;;;;;;;14.75;3.10;;;18.00;99.90;;;;;;5065542;28;20048;-68
2022/08/03 04:17:25;;;;;;;9.55;2.30;;;18.00;99.90;;;;;;5066753;28;20044;-69
2022/08/03 04:19:53;;;;;;;9.25;2.67;;;18.00;99.90;;;;;;5062903;28;20064;-69
2022/08/03 04:22:28;;;;;;;7.10;2.50;;;18.00;99.90;;;;;;5065329;28;20738;-68
2022/08/03 04:25:18;;;;;;;8.13;2.75;;;18.00;99.90;;;;;;5065438;28;20040;-68
2022/08/03 04:27:46;;;;;;;8.65;2.60;;;18.00;99.90;;;;;;5065310;28;20055;-68
2022/08/03 04:30:13;;;;;;;8.98;2.85;;;18.10;99.90;;;;;;5066799;28;20049;-68
2022/08/03 04:32:40;;;;;;;12.48;2.90;;;18.00;99.90;;;;;;5063187;28;20591;-69
2022/08/03 04:35:07;;;;;;;12.73;2.80;;;18.00;99.90;;;;;;5064375;28;20066;-69
2022/08/03 04:37:42;;;;;;;8.80;2.67;;;18.10;99.90;;;;;;5046265;28;20107;-68
2022/08/03 04:40:13;;;;;;;13.38;3.38;;;18.10;99.90;;;;;;5049848;28;20073;-68
2022/08/03 04:42:40;;;;;;;8.07;2.80;;;18.10;99.90;;;;;;5066429;28;20037;-68
2022/08/03 04:45:14;;;;;;;7.97;2.38;;;18.30;99.90;;;;;;5065708;28;20040;-68
2022/08/03 04:47:41;;;;;;;11.65;3.00;;;18.60;99.90;;;;;;5066200;28;20044;-68
2022/08/03 04:50:07;;;;;;;11.75;2.70;;;19.60;99.90;;;;;;5062241;28;21268;-68
2022/08/03 04:52:33;;;;;;;10.40;2.40;;;20.60;99.90;;;;;;5049368;28;20080;-69
2022/08/03 04:54:59;;;;;;;7.25;2.10;;;21.50;99.90;;;;;;5048901;28;20072;-68
2022/08/03 04:57:25;;;;;;;11.00;2.38;;;22.40;99.90;;;;;;5066028;28;20060;-69
2022/08/03 04:59:55;;;;;;;8.40;2.28;;;23.10;99.90;;;;;;5066436;28;20043;-68
2022/08/03 05:02:24;;;;;;;11.20;2.10;;;23.80;99.90;;;;;;5063629;28;20131;-70
2022/08/03 05:04:49;;;;;;;11.23;3.38;;;24.40;99.90;;;;;;5049320;28;20298;-70
2022/08/03 05:07:16;;;;;;;7.70;2.10;;;24.60;99.90;;;;;;5066699;28;20070;-69
2022/08/03 05:09:45;;;;;;;11.38;2.75;;;24.40;99.90;;;;;;5062710;28;20086;-69
2022/08/03 05:12:11;;;;;;;11.93;2.22;;;24.40;99.90;;;;;;5064648;28;20048;-69
2022/08/03 05:14:37;;;;;;;9.70;1.88;;;24.80;99.90;;;;;;5049390;28;20055;-69
2022/08/03 05:17:07;;;;;;;7.95;2.42;;;25.10;99.90;;;;;;5048797;28;20464;-69
2022/08/03 05:19:33;;;;;;;10.32;2.10;;;25.30;99.90;;;;;;5061845;28;20040;-69
2022/08/03 05:21:59;;;;;;;14.55;2.40;;;25.60;99.90;;;;;;5065295;28;20441;-69
2022/08/03 05:24:26;;;;;;;10.52;2.00;;;26.20;99.90;;;;;;5069704;28;20135;-69
2022/08/03 05:26:52;;;;;;;9.93;2.00;;;26.60;99.90;;;;;;5069383;28;20076;-69
2022/08/03 05:29:17;;;;;;;6.43;2.08;;;27.00;99.90;;;;;;5069808;28;20044;-70
2022/08/03 05:31:43;;;;;;;11.30;1.95;;;27.40;99.90;;;;;;5069137;28;20032;-69
2022/08/03 05:34:08;;;;;;;10.18;2.60;;;27.00;99.90;;;;;;5051125;28;20037;-68
2022/08/03 05:36:34;;;;;;;9.93;1.85;;;26.00;99.90;;;;;;5068592;28;20072;-69
2022/08/03 05:39:00;;;;;;;12.93;2.58;;;25.00;99.90;;;;;;5069335;28;20082;-69
2022/08/03 05:41:25;;;;;;;7.60;2.05;;;24.20;99.90;;;;;;5069593;28;20048;-69
2022/08/03 05:43:52;;;;;;;7.65;2.17;;;23.50;99.90;;;;;;5068739;28;20063;-70
2022/08/03 05:46:19;;;;;;;7.88;2.22;;;23.00;99.90;;;;;;5069477;28;20123;-69
2022/08/03 05:48:44;;;;;;;9.10;2.00;;;22.80;99.90;;;;;;5068466;28;20044;-69
2022/08/03 05:51:10;;;;;;;12.52;2.33;;;22.40;99.90;;;;;;5064261;28;20575;-69
2022/08/03 05:53:37;;;;;;;7.43;2.00;;;22.00;99.90;;;;;;5067744;28;20455;-69
2022/08/03 05:56:03;;;;;;;11.77;2.80;;;21.70;99.90;;;;;;5068420;28;20040;-70
2022/08/03 05:58:28;;;;;;;12.13;2.22;;;21.40;99.90;;;;;;5068979;28;20055;-69
2022/08/03 06:00:54;;;;;;;10.20;2.55;;;21.40;99.90;;;;;;5068900;28;20044;-69
2022/08/03 06:03:20;;;;;;;13.57;2.85;;;21.80;99.90;;;;;;5068671;28;20131;-70
2022/08/03 06:05:46;;;;;;;12.05;2.55;;;21.60;99.90;;;;;;5065169;28;20037;-68
2022/08/03 06:08:12;;;;;;;13.80;2.95;;;21.40;99.90;;;;;;5052110;28;20085;-69
2022/08/03 06:10:38;;;;;;;12.82;3.00;;;21.30;99.90;;;;;;5066549;28;20049;-69
2022/08/03 06:13:04;;;;;;;13.13;2.58;;;21.10;99.90;;;;;;5064884;28;20048;-69
2022/08/03 06:15:32;;;;;;;14.10;2.92;;;21.00;99.90;;;;;;5068858;28;20126;-69
2022/08/03 06:17:58;;;;;;;13.38;2.42;;;21.00;99.90;;;;;;5068001;28;20047;-69
2022/08/03 06:20:24;;;;;;;8.88;2.40;;;20.80;99.90;;;;;;5067275;28;20390;-69
2022/08/03 06:22:50;;;;;;;14.52;3.05;;;20.70;99.90;;;;;;5050920;28;20405;-69
2022/08/03 06:25:16;;;;;;;14.65;3.05;;;20.60;99.90;;;;;;5069990;28;20039;-69
2022/08/03 06:27:42;;;;;;;10.68;2.65;;;20.60;99.90;;;;;;5067372;28;20424;-69
2022/08/03 06:30:10;;;;;;;14.15;3.20;;;20.60;99.90;;;;;;5051503;28;20047;-69
2022/08/03 06:32:37;;;;;;;12.05;2.65;;;20.60;99.90;;;;;;5050752;28;20071;-69
2022/08/03 06:35:06;;;;;;;14.77;2.85;;;20.70;99.90;;;;;;5046211;28;20044;-69
2022/08/03 06:37:45;;;;;;;16.08;3.40;;;20.90;99.90;;;;;;5051573;28;20047;-69
2022/08/03 06:40:17;;;;;;;12.50;3.13;;;21.00;99.90;;;;;;5068488;28;20094;-69
2022/08/03 06:42:44;;;;;;;10.65;2.28;;;21.00;99.90;;;;;;5050289;28;20098;-69
2022/08/03 06:45:10;;;;;;;14.32;3.15;;;21.00;99.90;;;;;;5069284;28;20509;-71
2022/08/03 06:47:36;;;;;;;14.63;3.33;;;21.00;99.90;;;;;;5066893;28;20036;-69
2022/08/03 06:50:04;;;;;;;12.23;3.20;;;21.10;99.90;;;;;;5065159;28;20580;-68
2022/08/03 06:52:30;;;;;;;15.40;3.50;;;21.10;99.90;;;;;;5067925;28;20505;-68
2022/08/03 06:54:56;;;;;;;14.05;3.58;;;21.10;99.90;;;;;;5063237;28;20060;-69
2022/08/03 06:57:22;;;;;;;11.15;3.00;;;21.10;99.90;;;;;;5069321;28;20082;-68
2022/08/03 06:59:48;;;;;;;15.43;2.70;;;21.10;99.90;;;;;;5069247;28;20598;-69
2022/08/03 07:02:13;;;;;;;16.33;3.25;;;21.10;99.90;;;;;;5068424;28;20079;-69
2022/08/03 07:04:39;;;;;;;15.30;3.33;;;21.20;99.90;;;;;;5067020;28;20493;-69
2022/08/03 07:07:04;;;;;;;14.27;3.13;;;21.20;99.90;;;;;;5049312;28;20044;-68
2022/08/03 07:09:30;;;;;;;12.88;3.05;;;21.30;99.90;;;;;;5049470;28;20469;-69
2022/08/03 07:11:57;;;;;;;16.20;3.67;;;21.30;99.90;;;;;;5047541;28;20056;-69
2022/08/03 07:14:23;;;;;;;12.82;3.28;;;21.40;99.90;;;;;;5060835;28;20083;-69
2022/08/03 07:16:48;;;;;;;10.98;3.00;;;21.40;99.90;;;;;;5056667;28;20068;-69
2022/08/03 07:19:14;;;;;;;9.98;2.80;;;21.50;99.90;;;;;;5045282;28;20048;-69
2022/08/03 07:21:40;;;;;;;12.68;2.67;;;21.60;99.90;;;;;;5058887;28;20036;-69
2022/08/03 07:24:06;;;;;;;16.25;3.25;;;21.80;99.90;;;;;;5059031;28;20040;-69
2022/08/03 07:26:31;;;;;;;13.80;3.75;;;22.00;99.90;;;;;;5063671;28;20040;-69
2022/08/03 07:28:59;;;;;;;15.82;3.15;;;22.20;99.90;;;;;;5047974;28;20044;-69
2022/08/03 07:31:25;;;;;;;13.73;3.13;;;22.40;99.90;;;;;;5064852;28;20409;-68
2022/08/03 07:33:51;;;;;;;9.48;3.20;;;22.60;99.90;;;;;;5065632;28;20043;-68
2022/08/03 07:36:16;;;;;;;12.75;3.22;;;22.80;99.90;;;;;;5049571;28;20032;-69
2022/08/03 07:38:42;;;;;;;14.65;3.00;;;23.10;99.90;;;;;;5076237;28;20079;-68
2022/08/03 07:41:08;;;;;;;11.80;3.13;;;23.40;99.90;;;;;;5064909;28;20041;-68
2022/08/03 07:43:34;;;;;;;13.27;3.05;;;23.80;99.90;;;;;;5059379;28;20044;-68
2022/08/03 07:45:59;;;;;;;13.13;3.33;;;24.20;99.90;;;;;;5060831;28;20362;-68
2022/08/03 07:48:25;;;;;;;11.48;3.30;;;24.70;99.90;;;;;;5067106;28;20056;-68
2022/08/03 07:50:51;;;;;;;15.43;3.50;;;25.80;99.90;;;;;;5064736;28;20044;-68
2022/08/03 07:53:17;;;;;;;17.35;3.55;;;26.30;99.90;;;;;;5064179;28;20068;-68
2022/08/03 07:55:43;;;;;;;13.73;2.90;;;26.30;99.90;;;;;;5064142;28;20044;-68
2022/08/03 07:58:14;;;;;;;14.05;3.55;;;26.20;99.90;;;;;;5065820;28;20044;-67
2022/08/03 08:00:40;;;;;;;;;;;26.20;99.90;;;;;;5061220;28;20040;-68
2022/08/03 08:03:06;;;;;;;9.88;3.05;;;26.20;99.90;;;;;;5066530;28;19920;-68
2022/08/03 08:05:33;;;;;;;13.98;3.20;;;26.30;99.90;;;;;;5065404;28;20507;-67
2022/08/03 08:08:00;;;;;;;16.58;3.58;;;26.60;99.90;;;;;;5050517;28;20033;-68
2022/08/03 08:10:25;;;;;;;12.13;3.40;;;26.70;99.90;;;;;;5063674;28;20056;-70
2022/08/03 08:12:52;;;;;;;15.05;3.38;;;27.00;99.90;;;;;;5048818;28;20047;-68
2022/08/03 08:15:19;;;;;;;14.32;3.13;;;27.10;99.90;;;;;;5050306;28;20079;-68
2022/08/03 08:17:53;;;;;;;13.85;3.47;;;27.20;99.90;;;;;;5052115;28;20129;-68
2022/08/03 08:20:34;;;;;;;15.40;3.65;;;27.30;99.90;;;;;;5050247;28;20033;-68
2022/08/03 08:23:01;;;;;;;12.52;3.40;;;27.50;99.90;;;;;;5036816;28;20044;-68
2022/08/03 08:25:28;;;;;;;14.68;3.13;;;27.70;99.90;;;;;;5053117;28;20044;-68
2022/08/03 08:27:54;;;;;;;16.30;3.30;;;27.90;99.90;;;;;;5053405;28;20416;-68
2022/08/03 08:30:22;;;;;;;15.02;3.08;;;27.90;99.90;;;;;;5057114;28;20048;-68
2022/08/03 08:32:48;;;;;;;14.77;3.50;;;27.90;99.90;;;;;;5052969;28;20048;-68
2022/08/03 08:35:15;;;;;;;14.35;3.30;;;27.90;99.90;;;;;;5049333;28;20614;-68
2022/08/03 08:37:42;;;;;;;11.50;2.92;;;28.00;99.90;;;;;;5041777;28;20052;-68
2022/08/03 08:40:08;;;;;;;13.05;3.03;;;28.20;99.90;;;;;;5063196;28;20049;-68
2022/08/03 08:42:37;;;;;;;10.63;3.00;;;28.40;99.90;;;;;;5063367;28;20378;-68
2022/08/03 08:45:05;;;;;;;11.85;3.28;;;28.60;99.90;;;;;;5062492;28;20047;-68
2022/08/03 08:47:31;;;;;;;17.10;3.92;;;28.70;99.90;;;;;;5064742;28;20120;-68
2022/08/03 08:49:58;;;;;;;10.50;3.50;;;28.70;99.90;;;;;;5043076;28;20041;-69
2022/08/03 08:52:26;;;;;;;13.65;3.45;;;28.50;99.90;;;;;;5062386;28;20082;-69
2022/08/03 08:54:57;;;;;;;12.02;3.00;;;28.10;99.90;;;;;;5028165;28;20600;-69
2022/08/03 08:57:28;;;;;;;13.50;3.78;;;28.00;99.90;;;;;;5032672;28;20917;-70
2022/08/03 08:59:55;;;;;;;14.48;3.75;;;28.00;99.90;;;;;;5063433;28;20463;-69
2022/08/03 09:02:23;;;;;;;12.55;3.25;;;28.20;99.90;;;;;;5065867;28;20412;-69
2022/08/03 09:04:49;;;;;;;14.98;4.00;;;28.60;99.90;;;;;;5054500;28;20524;-70
2022/08/03 09:07:16;;;;;;;11.05;3.42;;;28.70;99.90;;;;;;5042163;28;20435;-69
2022/08/03 09:09:42;;;;;;;11.48;3.88;;;28.60;99.90;;;;;;5052190;28;20597;-69
2022/08/03 09:12:09;;;;;;;12.68;3.35;;;28.50;99.90;;;;;;5051495;28;20520;-69
2022/08/03 09:14:34;;;;;;;10.00;3.28;;;28.70;99.90;;;;;;5071592;28;20087;-69
2022/08/03 09:17:03;;;;;;;13.50;3.15;;;28.60;99.90;;;;;;5048951;28;20051;-69
2022/08/03 09:19:33;;;;;;;13.55;3.65;;;28.50;99.90;;;;;;5060120;28;20556;-69
2022/08/03 09:22:16;;;;;;;14.45;3.90;;;28.50;99.90;;;;;;5063985;28;20052;-70
2022/08/03 09:24:56;;;;;;;11.50;3.85;;;28.80;99.90;;;;;;5076509;28;20048;-70
2022/08/03 09:27:22;;;;;;;11.20;3.60;;;29.00;99.90;;;;;;5055990;28;20044;-69
2022/08/03 09:29:50;;;;;;;10.88;4.20;;;29.30;99.90;;;;;;5052813;28;20063;-70
2022/08/03 09:32:22;;;;;;;12.45;4.00;;;29.40;99.90;;;;;;5056667;28;20048;-69
2022/08/03 09:34:49;;;;;;;21.42;4.93;;;29.50;99.90;;;;;;5060078;28;20055;-69
2022/08/03 09:37:17;;;;;;;13.57;4.07;;;29.20;99.90;;;;;;5051626;28;20127;-69
2022/08/03 09:39:44;;;;;;;12.00;3.33;;;29.10;99.90;;;;;;5063918;28;20473;-69
2022/08/03 09:42:13;;;;;;;14.32;3.88;;;29.20;99.90;;;;;;5046541;28;20040;-70
2022/08/03 09:44:42;;;;;;;14.20;3.97;;;29.40;99.90;;;;;;5047205;28;20044;-69
2022/08/03 09:47:12;;;;;;;11.85;4.07;;;29.60;99.90;;;;;;5045429;28;20311;-68
2022/08/03 09:49:40;;;;;;;12.20;3.95;;;29.50;99.90;;;;;;5062460;28;20048;-69
2022/08/03 09:52:21;;;;;;;13.70;4.20;;;29.50;99.90;;;;;;5058390;28;20718;-67
2022/08/03 09:54:51;;;;;;;13.93;4.40;;;29.60;99.90;;;;;;5050785;28;20044;-69
2022/08/03 09:57:25;;;;;;;12.68;4.70;;;29.60;99.90;;;;;;5067263;28;20033;-70
2022/08/03 09:59:52;;;;;;;11.73;3.60;;;29.50;99.90;;;;;;5062355;28;20045;-71
2022/08/03 10:02:25;;;;;;;11.88;3.60;;;29.60;99.90;;;;;;5060326;28;20512;-68
2022/08/03 10:04:54;;;;;;;16.00;4.32;;;29.70;99.90;;;;;;5062712;28;20045;-69
2022/08/03 10:07:21;;;;;;;13.23;4.53;;;29.80;99.90;;;;;;5060926;28;20867;-69
2022/08/03 10:09:58;;;;;;;11.70;4.25;;;29.80;99.90;;;;;;5058817;28;20498;-70
2022/08/03 10:12:25;;;;;;;13.52;3.90;;;29.80;99.90;;;;;;5066545;28;20149;-70
2022/08/03 10:14:53;;;;;;;12.93;3.78;;;30.00;99.90;;;;;;5047773;28;20067;-70
2022/08/03 10:17:23;;;;;;;18.13;4.38;;;30.10;99.90;;;;;;5064103;28;20044;-70
2022/08/03 10:19:49;;;;;;;11.77;4.00;;;30.20;99.90;;;;;;5056667;28;20119;-70
2022/08/03 10:22:26;;;;;;;11.95;3.33;;;30.40;99.90;;;;;;5059637;28;20542;-70
2022/08/03 10:24:57;;;;;;;11.80;4.70;;;30.50;99.90;;;;;;5051249;28;20056;-74
2022/08/03 10:27:24;;;;;;;11.98;3.70;;;30.50;99.90;;;;;;5054894;28;20041;-70
2022/08/03 10:29:53;;;;;;;15.50;4.30;;;30.50;99.90;;;;;;5053667;28;20497;-70
2022/08/03 10:32:53;;;;;;;15.10;4.03;;;30.30;99.90;;;;;;5037801;28;20059;-71
2022/08/03 10:35:20;;;;;;;15.38;4.28;;;30.20;99.90;;;;;;5055530;28;20772;-73
2022/08/03 10:37:59;;;;;;;13.38;3.67;;;30.20;99.90;;;;;;5050963;28;20478;-72
2022/08/03 10:40:27;;;;;;;10.63;4.03;;;30.20;99.90;;;;;;5052395;28;20048;-73
2022/08/03 10:42:56;;;;;;;13.32;3.85;;;30.00;99.90;;;;;;5065268;28;20112;-71
2022/08/03 10:45:25;;;;;;;19.23;4.75;;;30.00;99.90;;;;;;5042877;28;20052;-70
2022/08/03 10:47:52;;;;;;;16.98;4.72;;;29.90;99.90;;;;;;5054949;28;20041;-69
2022/08/03 10:50:19;;;;;;;17.67;5.70;;;29.80;99.90;;;;;;5053449;28;20786;-71
2022/08/03 10:53:12;;;;;;;15.38;4.93;;;29.70;99.90;;;;;;5058040;28;20055;-69
2022/08/03 10:58:51;;;;;;;18.65;5.68;;;29.70;99.90;;;;;;5055044;28;20121;-71
2022/08/03 11:01:18;;;;;;;16.10;5.07;;;29.80;99.90;;;;;;5055522;28;20131;-69
2022/08/03 11:03:56;;;;;;;20.17;5.40;;;29.90;99.90;;;;;;5056215;28;20048;-69
2022/08/03 11:06:26;;;;;;;17.88;5.15;;;30.00;99.90;;;;;;5063576;28;20088;-70
2022/08/03 11:09:10;;;;;;;16.43;5.53;;;30.00;99.90;;;;;;5034159;28;20040;-71
2022/08/03 11:11:41;;;;;;;17.50;5.38;;;30.00;99.90;;;;;;5065692;28;20659;-70
2022/08/03 11:14:14;;;;;;;18.15;5.30;;;30.00;99.90;;;;;;5061043;28;20032;-70
2022/08/03 11:16:41;;;;;;;19.48;5.53;;;30.10;99.90;;;;;;5063294;28;20416;-71
2022/08/03 11:19:09;;;;;;;19.88;5.47;;;30.10;99.90;;;;;;5066983;28;20382;-71
2022/08/03 11:21:50;;;;;;;19.48;5.10;;;30.00;99.90;;;;;;5044545;28;20122;-71
2022/08/03 11:24:42;;;;;;;17.70;6.20;;;30.00;99.90;;;;;;5060777;28;20049;-70
2022/08/03 11:27:17;;;;;;;19.60;5.45;;;30.10;99.90;;;;;;5044536;28;20044;-72
2022/08/03 11:29:53;;;;;;;20.92;5.07;;;30.20;99.90;;;;;;5060095;28;20042;-70
2022/08/03 11:32:42;;;;;;;18.50;5.20;;;30.30;99.90;;;;;;5057115;28;20039;-69
2022/08/03 11:35:15;;;;;;;20.67;5.07;;;30.30;99.90;;;;;;5049916;28;20097;-69
2022/08/03 11:37:53;;;;;;;19.60;4.78;;;30.30;99.90;;;;;;5053547;28;20123;-71
2022/08/03 11:40:43;;;;;;;25.45;5.88;;;30.30;99.90;;;;;;5055350;28;20127;-71
2022/08/03 11:43:25;;;;;;;19.77;4.88;;;30.40;99.90;;;;;;5076761;28;20644;-69
2022/08/03 11:46:02;;;;;;;14.13;5.00;;;30.40;99.90;;;;;;5064586;28;20123;-71
2022/08/03 11:48:28;;;;;;;16.77;4.78;;;30.40;99.90;;;;;;5071461;28;20489;-71
2022/08/03 11:50:53;;;;;;;18.92;5.13;;;30.40;99.90;;;;;;5053732;28;20044;-70
2022/08/03 11:53:19;;;;;;;14.05;4.47;;;30.50;99.90;;;;;;5055886;28;20032;-70
2022/08/03 11:55:49;;;;;;;14.80;5.30;;;30.60;99.90;;;;;;5047575;28;20478;-69
2022/08/03 11:58:22;;;;;;;16.20;4.63;;;30.70;99.90;;;;;;5059035;28;20397;-71
2022/08/03 12:00:49;;;;;;;15.80;4.95;;;30.70;99.90;;;;;;5054300;28;20488;-70
2022/08/03 12:03:17;;;;;;;17.95;5.43;;;30.60;99.90;;;;;;5047833;28;20545;-70
2022/08/03 12:06:03;;;;;;;17.67;4.97;;;30.60;99.90;;;;;;5039816;28;20147;-70
2022/08/03 12:08:32;;;;;;;18.30;4.80;;;30.40;99.90;;;;;;5059821;28;20086;-70
2022/08/03 12:11:01;;;;;;;21.65;4.93;;;30.40;99.90;;;;;;5049633;28;20049;-69
2022/08/03 12:13:48;;;;;;;20.75;4.63;;;30.40;99.90;;;;;;5051192;28;20068;-70
2022/08/03 12:16:22;;;;;;;18.75;4.55;;;30.40;99.90;;;;;;5054843;28;20405;-69
2022/08/03 12:19:01;;;;;;;13.07;3.97;;;30.40;99.90;;;;;;5060451;28;21064;-69
2022/08/03 12:21:28;;;;;;;15.82;3.83;;;30.30;99.90;;;;;;5033245;28;20044;-70
2022/08/03 12:23:59;;;;;;;15.88;4.32;;;30.30;99.90;;;;;;5050252;28;20072;-70
2022/08/03 12:26:26;;;;;;;18.58;4.82;;;30.40;99.90;;;;;;5061226;28;20048;-70
2022/08/03 12:28:52;;;;;;;19.10;4.57;;;30.40;99.90;;;;;;5051134;28;20716;-70
2022/08/03 12:31:18;;;;;;;19.88;5.15;;;30.40;99.90;;;;;;5057221;28;20139;-71
2022/08/03 12:34:05;;;;;;;17.35;4.57;;;30.50;99.90;;;;;;5065818;28;20052;-74
2022/08/03 12:36:32;;;;;;;17.77;4.57;;;30.30;99.90;;;;;;5037722;28;20549;-72
2022/08/03 12:39:06;;;;;;;18.95;5.47;;;30.30;99.90;;;;;;5063042;28;20047;-71
2022/08/03 12:41:35;;;;;;;21.40;4.63;;;30.30;99.90;;;;;;5051803;28;20583;-73
2022/08/03 12:44:03;;;;;;;15.27;4.78;;;30.30;99.90;;;;;;5048729;28;20048;-73
2022/08/03 12:46:31;;;;;;;15.65;5.32;;;30.20;99.90;;;;;;5059205;28;20060;-74
2022/08/03 12:49:15;;;;;;;16.98;4.35;;;30.10;99.90;;;;;;5052302;28;20062;-73
2022/08/03 12:51:41;;;;;;;16.50;4.35;;;30.10;99.90;;;;;;5034242;28;20060;-72
2022/08/03 12:54:08;;;;;;;18.13;5.22;;;30.10;99.90;;;;;;5060343;28;20045;-74
2022/08/03 12:56:34;;;;;;;19.17;4.70;;;30.20;99.90;;;;;;5067128;28;20068;-71
2022/08/03 12:59:00;;;;;;;15.98;4.07;;;30.20;99.90;;;;;;5065536;28;20070;-72
2022/08/03 13:01:34;;;;;;;18.25;4.85;;;30.20;99.90;;;;;;5062118;28;20040;-72